Anthem, Arizona
Current Conditions -  °F | °C
As of 5:53 PM on Friday 19 Dec 2014 (Local Time) from KDVT Reporting Station
Clear Clear  
Wind Chill: 56°   Ceiling: Unl
Heat Index: 56°   Visibility: 10mi
Dew Point: 39°   Wind: 3mph
Humidity: 53%   Direction: 310°NW
Pressure: 30.12"   Gusts: NA
Location:  33.8348°N, 112.071°W
Report Text: KDVT 200053Z 31003KT 10SM CLR 13/04 A3012 RMK AO2 SLP194 T01330039
Loading
Personal Weather Stations






























Interactive Weather Map New forecast layout! Learn more

10-Day Weather Forecast

Advertisements
Track Severe Weather on mobile